createdAt,value
2023-06-11T00:01:49.552Z,19.87
2023-06-11T00:04:26.763Z,19.82
2023-06-11T00:06:58.500Z,19.83
2023-06-11T00:09:29.583Z,19.78
2023-06-11T00:12:02.996Z,19.76
2023-06-11T00:14:33.744Z,19.74
2023-06-11T00:17:04.449Z,19.73
2023-06-11T00:19:35.108Z,19.68
2023-06-11T00:22:06.640Z,19.67
2023-06-11T00:24:37.489Z,19.66
2023-06-11T00:27:11.240Z,19.66
2023-06-11T00:29:41.938Z,19.63
2023-06-11T00:32:13.457Z,19.59
2023-06-11T00:34:44.370Z,19.60
2023-06-11T00:37:15.605Z,19.57
2023-06-11T00:39:46.306Z,19.55
2023-06-11T00:42:20.876Z,19.54
2023-06-11T00:44:53.286Z,19.51
2023-06-11T00:47:24.171Z,19.53
2023-06-11T00:49:55.157Z,19.48
2023-06-11T00:52:26.943Z,19.42
2023-06-11T00:54:59.886Z,19.44
2023-06-11T00:57:33.362Z,19.43
2023-06-11T01:00:04.865Z,19.40
2023-06-11T01:02:41.953Z,19.38
2023-06-11T01:05:14.100Z,19.36
2023-06-11T01:07:52.016Z,19.36
2023-06-11T01:10:23.016Z,19.34
2023-06-11T01:12:56.489Z,19.33
2023-06-11T01:15:27.148Z,19.22
2023-06-11T01:18:04.672Z,19.26
2023-06-11T01:20:41.004Z,19.24
2023-06-11T01:23:26.316Z,19.22
2023-06-11T01:26:20.776Z,19.15
2023-06-11T01:28:59.819Z,19.15
2023-06-11T01:31:32.817Z,19.11
2023-06-11T01:34:03.685Z,19.09
2023-06-11T01:36:36.059Z,19.04
2023-06-11T01:39:06.962Z,19.00
2023-06-11T01:41:37.754Z,18.96
2023-06-11T01:44:12.053Z,18.89
2023-06-11T01:46:42.765Z,18.85
2023-06-11T01:49:13.457Z,18.83
2023-06-11T01:51:44.603Z,18.77
2023-06-11T01:54:15.373Z,18.74
2023-06-11T01:56:46.116Z,18.68
2023-06-11T01:59:19.548Z,18.66
2023-06-11T02:01:55.049Z,18.63
2023-06-11T02:04:26.250Z,18.60
2023-06-11T02:06:56.948Z,18.53
2023-06-11T02:09:27.651Z,18.54
2023-06-11T02:11:58.284Z,18.51
2023-06-11T02:14:31.614Z,18.46
2023-06-11T02:17:02.250Z,18.40
2023-06-11T02:19:32.975Z,18.41
2023-06-11T02:22:03.589Z,18.38
2023-06-11T02:24:34.374Z,18.41
2023-06-11T02:27:05.062Z,18.38
2023-06-11T02:29:38.915Z,18.35
2023-06-11T02:32:12.946Z,18.30
2023-06-11T02:34:43.680Z,18.26
2023-06-11T02:37:14.357Z,18.24
2023-06-11T02:39:45.123Z,18.22
2023-06-11T02:42:15.832Z,18.19
2023-06-11T02:44:49.187Z,18.07
2023-06-11T02:47:20.039Z,18.11
2023-06-11T02:49:50.786Z,18.05
2023-06-11T02:52:21.442Z,17.97
2023-06-11T02:54:52.289Z,17.97
2023-06-11T02:57:23.051Z,17.91
2023-06-11T02:59:56.348Z,17.90
2023-06-11T03:02:27.048Z,17.84
2023-06-11T03:04:57.893Z,17.77
2023-06-11T03:07:28.620Z,17.76
2023-06-11T03:09:59.363Z,17.70
2023-06-11T03:12:30.102Z,17.66
2023-06-11T03:15:03.654Z,17.65
2023-06-11T03:17:34.321Z,17.59
2023-06-11T03:20:05.064Z,17.53
2023-06-11T03:22:35.777Z,17.47
2023-06-11T03:25:06.747Z,17.43
2023-06-11T03:27:37.418Z,17.40
2023-06-11T03:30:12.935Z,17.31
2023-06-11T03:32:45.221Z,17.27
2023-06-11T03:35:16.295Z,17.24
2023-06-11T03:37:46.955Z,17.20
2023-06-11T03:40:18.838Z,17.20
2023-06-11T03:42:49.552Z,17.17
2023-06-11T03:45:23.106Z,17.18
2023-06-11T03:47:57.543Z,17.13
2023-06-11T03:50:28.301Z,17.13
2023-06-11T03:52:58.956Z,17.11
2023-06-11T03:55:31.167Z,17.11
2023-06-11T03:58:02.107Z,17.10
2023-06-11T04:00:35.471Z,17.08
2023-06-11T04:03:06.413Z,17.11
2023-06-11T04:05:40.374Z,17.07
2023-06-11T04:08:11.190Z,17.07
2023-06-11T04:10:41.984Z,17.06
2023-06-11T04:13:12.817Z,17.03
2023-06-11T04:15:46.133Z,17.05
2023-06-11T04:18:17.074Z,17.08
2023-06-11T04:20:47.971Z,17.09
2023-06-11T04:23:18.656Z,17.11
2023-06-11T04:25:50.518Z,17.11
2023-06-11T04:28:21.203Z,17.18
2023-06-11T04:30:59.466Z,17.19
2023-06-11T04:33:33.997Z,17.21
2023-06-11T04:36:06.915Z,17.18
2023-06-11T04:38:38.680Z,17.19
2023-06-11T04:41:12.862Z,17.20
2023-06-11T04:43:45.985Z,17.25
2023-06-11T04:46:19.520Z,17.24
2023-06-11T04:48:51.823Z,17.29
2023-06-11T04:51:25.306Z,17.32
2023-06-11T04:53:59.537Z,17.33
2023-06-11T04:56:30.260Z,17.38
2023-06-11T04:59:01.071Z,17.41
2023-06-11T05:01:34.506Z,17.48
2023-06-11T05:04:05.193Z,17.54
2023-06-11T05:06:36.041Z,17.65
2023-06-11T05:09:07.530Z,17.87
2023-06-11T05:11:38.225Z,18.10
2023-06-11T05:14:08.889Z,18.25
2023-06-11T05:16:42.911Z,18.34
2023-06-11T05:19:13.739Z,18.40
2023-06-11T05:21:44.500Z,18.39
2023-06-11T05:24:21.185Z,18.43
2023-06-11T05:26:52.243Z,18.45
2023-06-11T05:29:22.888Z,18.49
2023-06-11T05:31:57.900Z,18.42
2023-06-11T05:34:29.014Z,18.36
2023-06-11T05:36:59.688Z,18.41
2023-06-11T05:39:30.364Z,18.38
2023-06-11T05:42:01.092Z,18.38
2023-06-11T05:44:31.747Z,18.48
2023-06-11T05:47:05.280Z,18.71
2023-06-11T05:49:35.987Z,19.01
2023-06-11T05:52:06.963Z,19.35
2023-06-11T05:54:37.620Z,19.55
2023-06-11T05:57:12.223Z,19.79
2023-06-11T05:59:42.907Z,20.10
2023-06-11T06:02:16.371Z,20.22
2023-06-11T06:04:49.554Z,20.53
2023-06-11T06:07:21.041Z,20.91
2023-06-11T06:09:51.768Z,21.29
2023-06-11T06:12:22.498Z,21.36
2023-06-11T06:14:53.185Z,21.43
2023-06-11T06:17:26.553Z,21.74
2023-06-11T06:19:57.228Z,22.13
2023-06-11T06:22:27.955Z,22.60
2023-06-11T06:25:01.629Z,22.98
2023-06-11T06:27:32.692Z,23.35
2023-06-11T06:30:03.405Z,23.76
2023-06-11T06:32:38.489Z,24.18
2023-06-11T06:35:10.508Z,24.50
2023-06-11T06:37:42.013Z,24.83
2023-06-11T06:40:14.648Z,25.16
2023-06-11T06:42:45.328Z,25.33
2023-06-11T06:45:16.007Z,25.39
2023-06-11T06:47:49.468Z,25.19
2023-06-11T06:50:20.546Z,25.13
2023-06-11T06:52:51.375Z,25.02
2023-06-11T06:55:22.044Z,24.94
2023-06-11T06:57:52.759Z,24.90
2023-06-11T07:00:24.016Z,25.09
2023-06-11T07:02:57.428Z,25.15
2023-06-11T07:05:29.125Z,25.18
2023-06-11T07:07:59.971Z,25.10
2023-06-11T07:10:31.613Z,24.98
2023-06-11T07:13:02.354Z,25.07
2023-06-11T07:15:33.118Z,25.15
2023-06-11T07:18:07.001Z,25.29
2023-06-11T07:20:37.818Z,25.48
2023-06-11T07:23:08.731Z,25.48
2023-06-11T07:25:39.413Z,25.63
2023-06-11T07:28:10.679Z,25.63
2023-06-11T07:30:41.848Z,25.63
2023-06-11T07:33:18.513Z,25.59
2023-06-11T07:35:50.962Z,25.56
2023-06-11T07:38:21.762Z,25.37
2023-06-11T07:40:52.469Z,25.20
2023-06-11T07:43:23.184Z,25.02
2023-06-11T07:45:53.827Z,24.92
2023-06-11T07:48:27.131Z,24.83
2023-06-11T07:50:58.069Z,25.01
2023-06-11T07:53:28.860Z,25.22
2023-06-11T07:55:59.935Z,25.35
2023-06-11T07:58:30.779Z,25.45
2023-06-11T08:01:01.580Z,25.38
2023-06-11T08:03:37.408Z,25.31
2023-06-11T08:06:08.625Z,25.36
2023-06-11T08:08:39.559Z,25.34
2023-06-11T08:11:10.259Z,25.35
2023-06-11T08:13:42.026Z,25.25
2023-06-11T08:16:12.741Z,25.27
2023-06-11T08:18:46.506Z,25.12
2023-06-11T08:21:17.883Z,24.95
2023-06-11T08:23:49.864Z,24.86
2023-06-11T08:26:21.269Z,24.83
2023-06-11T08:28:52.185Z,24.83
2023-06-11T08:31:23.321Z,24.86
2023-06-11T08:33:56.651Z,24.73
2023-06-11T08:36:27.699Z,24.64
2023-06-11T08:38:58.605Z,24.61
2023-06-11T08:41:30.537Z,24.66
2023-06-11T08:44:01.400Z,24.63
2023-06-11T08:46:38.385Z,24.56
2023-06-11T08:49:18.486Z,24.61
2023-06-11T08:51:49.447Z,24.59
2023-06-11T08:54:21.603Z,24.65
2023-06-11T08:56:52.803Z,24.79
2023-06-11T08:59:23.519Z,24.79
2023-06-11T09:01:54.911Z,24.94
2023-06-11T09:04:28.340Z,24.95
2023-06-11T09:07:04.199Z,24.88
2023-06-11T09:09:35.061Z,24.84
2023-06-11T09:12:12.213Z,24.92
2023-06-11T09:14:43.096Z,25.02
2023-06-11T09:17:20.634Z,25.16
2023-06-11T09:19:59.049Z,25.33
2023-06-11T09:22:30.643Z,25.47
2023-06-11T09:25:01.445Z,25.39
2023-06-11T09:27:33.064Z,25.43
2023-06-11T09:30:17.370Z,25.58
2023-06-11T09:32:50.624Z,25.65
2023-06-11T09:35:25.763Z,25.73
2023-06-11T09:37:57.313Z,25.81
2023-06-11T09:40:28.482Z,25.87
2023-06-11T09:43:00.511Z,25.92
2023-06-11T09:45:33.092Z,25.87
2023-06-11T09:48:04.230Z,25.90
2023-06-11T09:50:38.049Z,25.96
2023-06-11T09:53:09.061Z,26.08
2023-06-11T09:55:40.185Z,26.20
2023-06-11T09:58:11.788Z,26.32
2023-06-11T10:00:42.561Z,26.49
2023-06-11T10:03:13.341Z,26.66
2023-06-11T10:05:47.116Z,26.72
2023-06-11T10:08:22.634Z,26.85
2023-06-11T10:11:01.873Z,26.91
2023-06-11T10:13:32.819Z,27.07
2023-06-11T10:16:04.606Z,27.04
2023-06-11T10:18:36.185Z,27.02
2023-06-11T10:21:09.656Z,27.11
2023-06-11T10:23:41.415Z,27.14
2023-06-11T10:26:14.104Z,27.23
2023-06-11T10:28:50.237Z,27.37
2023-06-11T10:31:29.599Z,27.48
2023-06-11T10:34:06.137Z,27.51
2023-06-11T10:36:42.700Z,27.53
2023-06-11T10:39:17.783Z,27.59
2023-06-11T10:41:48.107Z,27.65
2023-06-11T10:44:19.491Z,27.59
2023-06-11T10:46:53.144Z,27.75
2023-06-11T10:49:27.281Z,27.73
2023-06-11T10:52:00.734Z,27.75
2023-06-11T10:54:36.361Z,27.70
2023-06-11T10:57:08.848Z,27.69
2023-06-11T10:59:41.846Z,27.77
2023-06-11T11:02:17.515Z,27.84
2023-06-11T11:04:57.330Z,27.98
2023-06-11T11:07:35.847Z,28.06
2023-06-11T11:10:07.448Z,28.18
2023-06-11T11:12:44.627Z,28.22
2023-06-11T11:15:16.158Z,28.31
2023-06-11T11:17:48.548Z,28.39
2023-06-11T11:20:21.865Z,28.46
2023-06-11T11:22:58.186Z,28.55
2023-06-11T11:25:33.319Z,28.70
2023-06-11T11:28:04.058Z,28.86
2023-06-11T11:30:34.813Z,28.97
2023-06-11T11:33:05.683Z,29.05
2023-06-11T11:35:36.554Z,28.91
2023-06-11T11:38:10.405Z,28.95
2023-06-11T11:40:41.743Z,28.99
2023-06-11T11:43:16.927Z,29.07
2023-06-11T11:45:51.271Z,29.13
2023-06-11T11:48:22.421Z,29.15
2023-06-11T11:51:09.260Z,29.19
2023-06-11T11:53:45.257Z,29.24
2023-06-11T11:56:16.827Z,29.27
2023-06-11T11:58:47.761Z,29.26
2023-06-11T12:01:28.606Z,29.27
2023-06-11T12:04:04.289Z,29.27
2023-06-11T12:06:35.406Z,29.39
2023-06-11T12:09:08.713Z,29.36
2023-06-11T12:11:45.747Z,29.40
2023-06-11T12:14:27.274Z,29.44
2023-06-11T12:16:58.089Z,29.47
2023-06-11T12:19:30.546Z,29.44
2023-06-11T12:22:01.203Z,29.52
2023-06-11T12:24:34.666Z,29.64
2023-06-11T12:27:09.478Z,29.70
2023-06-11T12:29:43.066Z,29.79
2023-06-11T12:32:17.611Z,29.87
2023-06-11T12:34:51.385Z,29.91
2023-06-11T12:37:22.570Z,29.79
2023-06-11T12:39:55.974Z,29.77
2023-06-11T12:42:28.978Z,29.72
2023-06-11T12:45:00.285Z,29.68
2023-06-11T12:47:31.408Z,29.68
2023-06-11T12:50:02.713Z,29.67
2023-06-11T12:52:33.405Z,29.63
2023-06-11T12:55:07.105Z,29.61
2023-06-11T12:57:38.361Z,29.63
2023-06-11T13:00:13.328Z,29.68
2023-06-11T13:02:45.471Z,29.66
2023-06-11T13:05:16.344Z,29.72
2023-06-11T13:07:47.735Z,29.74
2023-06-11T13:10:23.676Z,29.72
2023-06-11T13:12:56.506Z,29.71
2023-06-11T13:15:27.313Z,29.61
2023-06-11T13:17:58.564Z,29.60
2023-06-11T13:20:30.276Z,29.68
2023-06-11T13:23:01.086Z,29.71
2023-06-11T13:25:34.992Z,29.66
2023-06-11T13:28:06.079Z,29.73
2023-06-11T13:30:36.797Z,29.69
2023-06-11T13:33:07.754Z,29.84
2023-06-11T13:35:38.824Z,29.83
2023-06-11T13:38:09.574Z,29.84
2023-06-11T13:40:42.964Z,29.87
2023-06-11T13:43:13.634Z,29.98
2023-06-11T13:45:47.997Z,30.02
2023-06-11T13:48:20.798Z,30.00
2023-06-11T13:50:52.658Z,30.08
2023-06-11T13:53:23.637Z,29.96
2023-06-11T13:55:57.003Z,29.97
2023-06-11T13:58:27.749Z,30.02
2023-06-11T14:00:58.744Z,30.07
2023-06-11T14:03:29.830Z,30.07
2023-06-11T14:06:00.616Z,30.06
2023-06-11T14:08:31.440Z,29.91
2023-06-11T14:11:06.127Z,29.84
2023-06-11T14:13:36.819Z,29.80
2023-06-11T14:16:07.981Z,29.85
2023-06-11T14:18:38.778Z,29.96
2023-06-11T14:21:09.504Z,30.08
2023-06-11T14:23:40.203Z,30.19
2023-06-11T14:26:13.535Z,30.28
2023-06-11T14:28:44.214Z,30.28
2023-06-11T14:31:15.448Z,30.37
2023-06-11T14:33:46.197Z,30.51
2023-06-11T14:36:16.949Z,30.60
2023-06-11T14:38:47.734Z,30.66
2023-06-11T14:41:21.439Z,30.87
2023-06-11T14:43:52.121Z,30.96
2023-06-11T14:46:23.207Z,31.01
2023-06-11T14:48:54.000Z,31.11
2023-06-11T14:51:24.780Z,31.05
2023-06-11T14:53:55.490Z,31.13
2023-06-11T14:56:28.962Z,30.96
2023-06-11T14:58:59.699Z,31.03
2023-06-11T15:01:30.441Z,31.05
2023-06-11T15:04:01.196Z,30.96
2023-06-11T15:06:31.982Z,31.02
2023-06-11T15:09:02.663Z,30.91
2023-06-11T15:11:36.416Z,30.95
2023-06-11T15:14:07.579Z,30.88
2023-06-11T15:16:38.621Z,30.90
2023-06-11T15:19:09.367Z,30.95
2023-06-11T15:21:40.181Z,30.97
2023-06-11T15:24:11.586Z,30.93
2023-06-11T15:26:45.109Z,30.78
2023-06-11T15:29:16.246Z,30.75
2023-06-11T15:31:47.140Z,30.65
2023-06-11T15:34:17.953Z,30.47
2023-06-11T15:36:48.694Z,30.33
2023-06-11T15:39:19.389Z,30.18
2023-06-11T15:41:52.782Z,30.10
2023-06-11T15:44:23.561Z,30.00
2023-06-11T15:46:54.361Z,29.99
2023-06-11T15:49:25.129Z,29.95
2023-06-11T15:51:55.934Z,29.83
2023-06-11T15:54:26.686Z,29.80
2023-06-11T15:57:00.283Z,29.69
2023-06-11T15:59:31.148Z,29.71
2023-06-11T16:02:02.053Z,29.70
2023-06-11T16:04:35.454Z,29.71
2023-06-11T16:07:08.284Z,29.75
2023-06-11T16:09:39.719Z,29.81
2023-06-11T16:12:14.000Z,29.82
2023-06-11T16:14:46.371Z,29.75
2023-06-11T16:17:17.203Z,29.78
2023-06-11T16:19:47.986Z,29.89
2023-06-11T16:22:18.776Z,29.96
2023-06-11T16:24:49.492Z,30.05
2023-06-11T16:27:23.053Z,30.07
2023-06-11T16:29:53.725Z,30.20
2023-06-11T16:32:24.487Z,30.32
2023-06-11T16:34:55.156Z,30.29
2023-06-11T16:37:26.076Z,30.45
2023-06-11T16:39:56.771Z,30.56
2023-06-11T16:42:31.108Z,30.61
2023-06-11T16:45:01.816Z,30.76
2023-06-11T16:47:32.547Z,30.86
2023-06-11T16:50:03.222Z,30.84
2023-06-11T16:52:34.882Z,30.84
2023-06-11T16:55:05.981Z,30.74
2023-06-11T16:57:39.277Z,30.72
2023-06-11T17:00:12.495Z,30.57
2023-06-11T17:02:43.480Z,30.48
2023-06-11T17:05:14.449Z,30.42
2023-06-11T17:07:45.892Z,30.28
2023-06-11T17:10:16.601Z,30.23
2023-06-11T17:12:51.359Z,30.17
2023-06-11T17:15:22.448Z,30.08
2023-06-11T17:17:53.610Z,29.95
2023-06-11T17:20:24.696Z,29.93
2023-06-11T17:22:55.588Z,29.80
2023-06-11T17:25:26.996Z,29.68
2023-06-11T17:28:00.397Z,29.51
2023-06-11T17:30:31.273Z,29.53
2023-06-11T17:33:02.134Z,29.42
2023-06-11T17:35:32.968Z,29.25
2023-06-11T17:38:03.737Z,29.24
2023-06-11T17:40:35.400Z,29.19
2023-06-11T17:43:09.837Z,29.12
2023-06-11T17:45:40.513Z,29.03
2023-06-11T17:48:11.286Z,28.81
2023-06-11T17:50:42.598Z,28.64
2023-06-11T17:53:13.386Z,28.46
2023-06-11T17:55:44.049Z,28.22
2023-06-11T17:58:17.395Z,27.92
2023-06-11T18:00:48.076Z,27.78
2023-06-11T18:03:18.904Z,27.69
2023-06-11T18:05:49.699Z,27.53
2023-06-11T18:08:20.432Z,27.48
2023-06-11T18:10:51.187Z,27.30
2023-06-11T18:13:24.529Z,27.15
2023-06-11T18:15:55.328Z,27.07
2023-06-11T18:18:26.309Z,26.93
2023-06-11T18:20:57.125Z,26.83
2023-06-11T18:23:27.946Z,26.66
2023-06-11T18:25:58.699Z,26.58
2023-06-11T18:28:32.137Z,26.54
2023-06-11T18:31:02.952Z,26.53
2023-06-11T18:33:33.688Z,26.45
2023-06-11T18:36:04.394Z,26.45
2023-06-11T18:38:35.125Z,26.43
2023-06-11T18:41:05.826Z,26.38
2023-06-11T18:43:39.726Z,26.32
2023-06-11T18:46:10.456Z,26.24
2023-06-11T18:48:41.288Z,26.15
2023-06-11T18:51:12.016Z,26.07
2023-06-11T18:53:42.766Z,26.02
2023-06-11T18:56:13.590Z,25.81
2023-06-11T18:58:46.946Z,25.63
2023-06-11T19:01:17.846Z,25.51
2023-06-11T19:03:48.842Z,25.32
2023-06-11T19:06:20.911Z,24.94
2023-06-11T19:08:52.009Z,24.69
2023-06-11T19:11:22.754Z,24.39
2023-06-11T19:13:56.122Z,24.02
2023-06-11T19:16:26.840Z,23.61
2023-06-11T19:18:57.697Z,23.24
2023-06-11T19:21:29.577Z,22.68
2023-06-11T19:24:00.412Z,22.38
2023-06-11T19:26:31.097Z,21.96
2023-06-11T19:29:04.418Z,21.73
2023-06-11T19:31:35.211Z,21.49
2023-06-11T19:34:06.071Z,21.28
2023-06-11T19:36:37.920Z,21.07
2023-06-11T19:39:08.927Z,20.96
2023-06-11T19:41:39.618Z,20.81
2023-06-11T19:44:12.978Z,20.80
2023-06-11T19:46:43.836Z,20.75
2023-06-11T19:49:15.114Z,20.72
2023-06-11T19:51:45.998Z,20.72
2023-06-11T19:54:17.460Z,20.72
2023-06-11T19:56:48.405Z,20.51
2023-06-11T19:59:21.799Z,20.57
2023-06-11T20:01:52.653Z,20.59
2023-06-11T20:04:23.524Z,20.52
2023-06-11T20:06:54.229Z,20.46
2023-06-11T20:09:25.015Z,20.35
2023-06-11T20:12:04.393Z,20.24
2023-06-11T20:14:37.941Z,20.21
2023-06-11T20:17:09.031Z,20.16
2023-06-11T20:19:40.344Z,20.14
2023-06-11T20:22:11.356Z,20.09
2023-06-11T20:24:42.125Z,20.05
2023-06-11T20:27:12.870Z,20.08
2023-06-11T20:29:46.213Z,20.12
2023-06-11T20:32:18.586Z,20.06
2023-06-11T20:34:49.381Z,19.93
2023-06-11T20:37:20.124Z,19.85
2023-06-11T20:39:50.848Z,19.81
2023-06-11T20:42:21.661Z,19.75
2023-06-11T20:44:55.143Z,19.82
2023-06-11T20:47:26.202Z,19.79
2023-06-11T20:49:57.076Z,19.77
2023-06-11T20:52:28.182Z,19.80
2023-06-11T20:54:59.100Z,19.84
2023-06-11T20:57:29.849Z,19.83
2023-06-11T21:00:03.272Z,19.76
2023-06-11T21:02:34.127Z,19.81
2023-06-11T21:05:05.023Z,19.81
2023-06-11T21:07:36.403Z,19.71
2023-06-11T21:10:07.615Z,19.68
2023-06-11T21:12:46.748Z,19.65
2023-06-11T21:15:20.404Z,19.53
2023-06-11T21:17:51.254Z,19.54
2023-06-11T21:20:22.255Z,19.53
2023-06-11T21:22:52.969Z,19.51
2023-06-11T21:25:23.713Z,19.43
2023-06-11T21:27:54.405Z,19.39
2023-06-11T21:30:27.957Z,19.37
2023-06-11T21:32:58.672Z,19.39
2023-06-11T21:35:29.578Z,19.40
2023-06-11T21:38:00.304Z,19.44
2023-06-11T21:40:31.137Z,19.44
2023-06-11T21:43:02.084Z,19.46
2023-06-11T21:45:35.846Z,19.54
2023-06-11T21:48:07.171Z,19.55
2023-06-11T21:50:38.010Z,19.47
2023-06-11T21:53:09.176Z,19.47
2023-06-11T21:55:39.899Z,19.43
2023-06-11T21:58:10.633Z,19.44
2023-06-11T22:00:44.188Z,19.46
2023-06-11T22:03:18.539Z,19.42
2023-06-11T22:05:53.473Z,19.42
2023-06-11T22:08:26.800Z,19.42
2023-06-11T22:10:57.570Z,19.37
2023-06-11T22:13:28.306Z,19.39
2023-06-11T22:16:01.655Z,19.32
2023-06-11T22:18:34.421Z,19.26
2023-06-11T22:21:05.453Z,19.28
2023-06-11T22:23:50.329Z,19.26
2023-06-11T22:26:23.056Z,19.16
2023-06-11T22:28:54.431Z,19.26
2023-06-11T22:31:27.918Z,19.25
2023-06-11T22:33:58.658Z,19.19
2023-06-11T22:36:29.419Z,19.24
2023-06-11T22:39:00.095Z,19.18
2023-06-11T22:41:30.824Z,19.22
2023-06-11T22:44:01.507Z,19.22
2023-06-11T22:46:34.926Z,19.17
2023-06-11T22:49:06.202Z,19.19
2023-06-11T22:51:37.952Z,19.17
2023-06-11T22:54:09.750Z,19.20
2023-06-11T22:56:40.488Z,19.25
2023-06-11T22:59:11.340Z,19.23
2023-06-11T23:01:44.837Z,19.24
2023-06-11T23:04:15.779Z,19.26
2023-06-11T23:06:50.626Z,19.21
2023-06-11T23:09:23.805Z,19.16
2023-06-11T23:11:54.518Z,19.10
2023-06-11T23:14:25.348Z,19.11
2023-06-11T23:16:59.743Z,19.11
2023-06-11T23:19:30.739Z,19.13
2023-06-11T23:22:03.029Z,19.12
2023-06-11T23:24:33.836Z,19.11
2023-06-11T23:27:07.685Z,19.08
2023-06-11T23:29:38.426Z,19.10
2023-06-11T23:32:12.727Z,19.07
2023-06-11T23:34:43.607Z,19.12
2023-06-11T23:37:15.067Z,19.07
2023-06-11T23:39:46.012Z,19.12
2023-06-11T23:42:16.752Z,19.13
2023-06-11T23:44:47.422Z,19.12
2023-06-11T23:47:21.048Z,19.10
2023-06-11T23:49:51.830Z,19.01
2023-06-11T23:52:22.628Z,19.02
2023-06-11T23:54:53.331Z,19.02
2023-06-11T23:57:24.118Z,18.99
2023-06-11T23:59:55.003Z,18.89
